sensor_id;sensor_type;location;lat;lon;timestamp;P1;durP1;ratioP1;P2;durP2;ratioP2
85040;SDS011;75367;52.010;4.358;2024-02-28T00:01:52;2.22;;;1.60;;
85040;SDS011;75367;52.010;4.358;2024-02-28T00:04:18;4.88;;;1.70;;
85040;SDS011;75367;52.010;4.358;2024-02-28T00:06:44;3.92;;;1.73;;
85040;SDS011;75367;52.010;4.358;2024-02-28T00:09:11;3.63;;;1.30;;
85040;SDS011;75367;52.010;4.358;2024-02-28T00:11:41;3.17;;;1.30;;
85040;SDS011;75367;52.010;4.358;2024-02-28T00:14:10;3.15;;;1.42;;
85040;SDS011;75367;52.010;4.358;2024-02-28T00:16:35;4.35;;;1.40;;
85040;SDS011;75367;52.010;4.358;2024-02-28T00:19:01;3.15;;;1.35;;
85040;SDS011;75367;52.010;4.358;2024-02-28T00:21:26;2.30;;;1.42;;
85040;SDS011;75367;52.010;4.358;2024-02-28T00:23:52;4.17;;;1.40;;
85040;SDS011;75367;52.010;4.358;2024-02-28T00:26:17;3.47;;;1.52;;
85040;SDS011;75367;52.010;4.358;2024-02-28T00:28:42;2.10;;;1.20;;
85040;SDS011;75367;52.010;4.358;2024-02-28T00:31:08;4.13;;;1.80;;
85040;SDS011;75367;52.010;4.358;2024-02-28T00:33:33;3.43;;;1.73;;
85040;SDS011;75367;52.010;4.358;2024-02-28T00:35:58;2.13;;;1.20;;
85040;SDS011;75367;52.010;4.358;2024-02-28T00:38:24;4.20;;;1.85;;
85040;SDS011;75367;52.010;4.358;2024-02-28T00:40:49;2.13;;;1.40;;
85040;SDS011;75367;52.010;4.358;2024-02-28T00:43:14;4.25;;;1.92;;
85040;SDS011;75367;52.010;4.358;2024-02-28T00:45:40;3.60;;;2.10;;
85040;SDS011;75367;52.010;4.358;2024-02-28T00:48:06;4.18;;;2.00;;
85040;SDS011;75367;52.010;4.358;2024-02-28T00:50:32;2.92;;;1.75;;
85040;SDS011;75367;52.010;4.358;2024-02-28T00:52:57;4.65;;;2.28;;
85040;SDS011;75367;52.010;4.358;2024-02-28T00:55:23;2.17;;;1.95;;
85040;SDS011;75367;52.010;4.358;2024-02-28T00:57:48;2.35;;;1.73;;
85040;SDS011;75367;52.010;4.358;2024-02-28T01:00:13;4.78;;;2.28;;
85040;SDS011;75367;52.010;4.358;2024-02-28T01:02:39;3.60;;;1.92;;
85040;SDS011;75367;52.010;4.358;2024-02-28T01:05:06;7.13;;;2.35;;
85040;SDS011;75367;52.010;4.358;2024-02-28T01:07:32;5.90;;;2.05;;
85040;SDS011;75367;52.010;4.358;2024-02-28T01:09:57;3.47;;;2.08;;
85040;SDS011;75367;52.010;4.358;2024-02-28T01:12:23;4.30;;;2.40;;
85040;SDS011;75367;52.010;4.358;2024-02-28T01:14:48;3.00;;;2.00;;
85040;SDS011;75367;52.010;4.358;2024-02-28T01:17:13;5.78;;;2.70;;
85040;SDS011;75367;52.010;4.358;2024-02-28T01:19:39;3.80;;;2.13;;
85040;SDS011;75367;52.010;4.358;2024-02-28T01:22:04;3.78;;;1.90;;
85040;SDS011;75367;52.010;4.358;2024-02-28T01:24:29;3.90;;;1.98;;
85040;SDS011;75367;52.010;4.358;2024-02-28T01:26:55;3.40;;;2.28;;
85040;SDS011;75367;52.010;4.358;2024-02-28T01:29:20;3.67;;;2.08;;
85040;SDS011;75367;52.010;4.358;2024-02-28T01:31:45;3.40;;;2.05;;
85040;SDS011;75367;52.010;4.358;2024-02-28T01:34:11;5.25;;;2.05;;
85040;SDS011;75367;52.010;4.358;2024-02-28T01:36:36;7.28;;;2.20;;
85040;SDS011;75367;52.010;4.358;2024-02-28T01:39:02;5.20;;;2.35;;
85040;SDS011;75367;52.010;4.358;2024-02-28T01:41:28;5.93;;;2.25;;
85040;SDS011;75367;52.010;4.358;2024-02-28T01:43:53;6.95;;;2.63;;
85040;SDS011;75367;52.010;4.358;2024-02-28T01:46:37;5.38;;;2.35;;
85040;SDS011;75367;52.010;4.358;2024-02-28T01:49:02;5.43;;;2.28;;
85040;SDS011;75367;52.010;4.358;2024-02-28T01:51:27;3.70;;;2.40;;
85040;SDS011;75367;52.010;4.358;2024-02-28T01:53:53;6.20;;;2.65;;
85040;SDS011;75367;52.010;4.358;2024-02-28T01:56:20;5.88;;;2.90;;
85040;SDS011;75367;52.010;4.358;2024-02-28T01:58:46;4.15;;;3.13;;
85040;SDS011;75367;52.010;4.358;2024-02-28T02:01:15;4.25;;;2.70;;
85040;SDS011;75367;52.010;4.358;2024-02-28T02:03:42;5.13;;;3.30;;
85040;SDS011;75367;52.010;4.358;2024-02-28T02:06:08;5.13;;;2.92;;
85040;SDS011;75367;52.010;4.358;2024-02-28T02:08:34;6.35;;;3.55;;
85040;SDS011;75367;52.010;4.358;2024-02-28T02:10:59;7.47;;;3.92;;
85040;SDS011;75367;52.010;4.358;2024-02-28T02:13:25;4.90;;;3.80;;
85040;SDS011;75367;52.010;4.358;2024-02-28T02:15:50;8.43;;;4.07;;
85040;SDS011;75367;52.010;4.358;2024-02-28T02:18:16;6.90;;;4.50;;
85040;SDS011;75367;52.010;4.358;2024-02-28T02:20:46;5.20;;;3.83;;
85040;SDS011;75367;52.010;4.358;2024-02-28T02:23:14;6.82;;;4.60;;
85040;SDS011;75367;52.010;4.358;2024-02-28T02:25:46;7.57;;;4.80;;
85040;SDS011;75367;52.010;4.358;2024-02-28T02:28:12;6.07;;;4.15;;
85040;SDS011;75367;52.010;4.358;2024-02-28T02:30:38;7.10;;;4.00;;
85040;SDS011;75367;52.010;4.358;2024-02-28T02:33:04;6.68;;;4.40;;
85040;SDS011;75367;52.010;4.358;2024-02-28T02:35:30;7.97;;;4.75;;
85040;SDS011;75367;52.010;4.358;2024-02-28T02:37:55;6.95;;;4.30;;
85040;SDS011;75367;52.010;4.358;2024-02-28T02:40:21;5.93;;;4.68;;
85040;SDS011;75367;52.010;4.358;2024-02-28T02:42:46;6.97;;;5.18;;
85040;SDS011;75367;52.010;4.358;2024-02-28T02:45:12;7.43;;;4.60;;
85040;SDS011;75367;52.010;4.358;2024-02-28T02:47:37;5.57;;;4.65;;
85040;SDS011;75367;52.010;4.358;2024-02-28T02:50:02;7.38;;;4.65;;
85040;SDS011;75367;52.010;4.358;2024-02-28T02:52:28;6.25;;;5.60;;
85040;SDS011;75367;52.010;4.358;2024-02-28T02:54:53;9.18;;;5.10;;
85040;SDS011;75367;52.010;4.358;2024-02-28T02:57:19;7.32;;;4.60;;
85040;SDS011;75367;52.010;4.358;2024-02-28T02:59:44;7.25;;;4.55;;
85040;SDS011;75367;52.010;4.358;2024-02-28T03:02:10;6.53;;;4.47;;
85040;SDS011;75367;52.010;4.358;2024-02-28T03:04:35;7.50;;;3.92;;
85040;SDS011;75367;52.010;4.358;2024-02-28T03:07:00;6.57;;;4.85;;
85040;SDS011;75367;52.010;4.358;2024-02-28T03:09:26;7.93;;;4.30;;
85040;SDS011;75367;52.010;4.358;2024-02-28T03:11:51;7.72;;;4.05;;
85040;SDS011;75367;52.010;4.358;2024-02-28T03:14:16;6.60;;;4.43;;
85040;SDS011;75367;52.010;4.358;2024-02-28T03:16:43;8.93;;;4.53;;
85040;SDS011;75367;52.010;4.358;2024-02-28T03:19:10;9.68;;;4.60;;
85040;SDS011;75367;52.010;4.358;2024-02-28T03:21:35;8.98;;;4.65;;
85040;SDS011;75367;52.010;4.358;2024-02-28T03:24:01;7.72;;;4.20;;
85040;SDS011;75367;52.010;4.358;2024-02-28T03:26:27;6.13;;;4.45;;
85040;SDS011;75367;52.010;4.358;2024-02-28T03:28:52;8.27;;;4.72;;
85040;SDS011;75367;52.010;4.358;2024-02-28T03:31:17;8.05;;;4.90;;
85040;SDS011;75367;52.010;4.358;2024-02-28T03:33:43;7.75;;;5.90;;
85040;SDS011;75367;52.010;4.358;2024-02-28T03:36:08;9.68;;;5.07;;
85040;SDS011;75367;52.010;4.358;2024-02-28T03:38:34;9.35;;;4.70;;
85040;SDS011;75367;52.010;4.358;2024-02-28T03:40:59;9.73;;;5.35;;
85040;SDS011;75367;52.010;4.358;2024-02-28T03:43:24;7.40;;;4.88;;
85040;SDS011;75367;52.010;4.358;2024-02-28T03:45:50;7.88;;;5.07;;
85040;SDS011;75367;52.010;4.358;2024-02-28T03:48:15;8.25;;;5.43;;
85040;SDS011;75367;52.010;4.358;2024-02-28T03:50:40;9.27;;;5.32;;
85040;SDS011;75367;52.010;4.358;2024-02-28T03:53:06;9.15;;;5.28;;
85040;SDS011;75367;52.010;4.358;2024-02-28T03:55:31;6.30;;;4.95;;
85040;SDS011;75367;52.010;4.358;2024-02-28T03:57:57;7.95;;;5.15;;
85040;SDS011;75367;52.010;4.358;2024-02-28T04:00:22;8.85;;;5.55;;
85040;SDS011;75367;52.010;4.358;2024-02-28T04:02:47;8.18;;;6.45;;
85040;SDS011;75367;52.010;4.358;2024-02-28T04:05:13;7.80;;;5.63;;
85040;SDS011;75367;52.010;4.358;2024-02-28T04:07:38;9.93;;;6.15;;
85040;SDS011;75367;52.010;4.358;2024-02-28T04:10:04;9.20;;;6.22;;
85040;SDS011;75367;52.010;4.358;2024-02-28T04:12:30;10.25;;;7.05;;
85040;SDS011;75367;52.010;4.358;2024-02-28T04:14:56;9.10;;;6.35;;
85040;SDS011;75367;52.010;4.358;2024-02-28T04:17:21;10.05;;;6.40;;
85040;SDS011;75367;52.010;4.358;2024-02-28T04:19:46;14.68;;;7.63;;
85040;SDS011;75367;52.010;4.358;2024-02-28T04:22:12;9.77;;;6.95;;
85040;SDS011;75367;52.010;4.358;2024-02-28T04:24:37;8.63;;;6.73;;
85040;SDS011;75367;52.010;4.358;2024-02-28T04:27:03;10.73;;;7.50;;
85040;SDS011;75367;52.010;4.358;2024-02-28T04:29:30;15.50;;;8.30;;
85040;SDS011;75367;52.010;4.358;2024-02-28T04:31:55;13.13;;;8.45;;
85040;SDS011;75367;52.010;4.358;2024-02-28T04:34:21;11.57;;;8.18;;
85040;SDS011;75367;52.010;4.358;2024-02-28T04:36:46;9.90;;;7.55;;
85040;SDS011;75367;52.010;4.358;2024-02-28T04:39:12;13.55;;;7.30;;
85040;SDS011;75367;52.010;4.358;2024-02-28T04:41:37;10.68;;;7.22;;
85040;SDS011;75367;52.010;4.358;2024-02-28T04:44:02;12.23;;;7.78;;
85040;SDS011;75367;52.010;4.358;2024-02-28T04:46:28;10.88;;;8.23;;
85040;SDS011;75367;52.010;4.358;2024-02-28T04:48:53;10.95;;;8.00;;
85040;SDS011;75367;52.010;4.358;2024-02-28T04:51:18;10.27;;;6.95;;
85040;SDS011;75367;52.010;4.358;2024-02-28T04:53:44;11.70;;;7.90;;
85040;SDS011;75367;52.010;4.358;2024-02-28T04:56:09;11.90;;;8.75;;
85040;SDS011;75367;52.010;4.358;2024-02-28T04:58:35;11.50;;;8.15;;
85040;SDS011;75367;52.010;4.358;2024-02-28T05:01:01;9.93;;;8.05;;
85040;SDS011;75367;52.010;4.358;2024-02-28T05:03:26;13.65;;;8.73;;
85040;SDS011;75367;52.010;4.358;2024-02-28T05:05:52;12.63;;;8.15;;
85040;SDS011;75367;52.010;4.358;2024-02-28T05:08:19;11.32;;;8.93;;
85040;SDS011;75367;52.010;4.358;2024-02-28T05:10:44;11.48;;;8.35;;
85040;SDS011;75367;52.010;4.358;2024-02-28T05:13:10;10.02;;;7.82;;
85040;SDS011;75367;52.010;4.358;2024-02-28T05:15:35;12.25;;;8.27;;
85040;SDS011;75367;52.010;4.358;2024-02-28T05:18:01;10.77;;;8.23;;
85040;SDS011;75367;52.010;4.358;2024-02-28T05:20:26;10.35;;;8.38;;
85040;SDS011;75367;52.010;4.358;2024-02-28T05:22:52;11.73;;;8.65;;
85040;SDS011;75367;52.010;4.358;2024-02-28T05:25:17;13.02;;;8.32;;
85040;SDS011;75367;52.010;4.358;2024-02-28T05:27:43;10.07;;;7.57;;
85040;SDS011;75367;52.010;4.358;2024-02-28T05:30:08;10.50;;;8.35;;
85040;SDS011;75367;52.010;4.358;2024-02-28T05:32:34;12.35;;;7.72;;
85040;SDS011;75367;52.010;4.358;2024-02-28T05:34:59;10.95;;;7.07;;
85040;SDS011;75367;52.010;4.358;2024-02-28T05:37:25;12.73;;;7.90;;
85040;SDS011;75367;52.010;4.358;2024-02-28T05:39:50;13.05;;;9.35;;
85040;SDS011;75367;52.010;4.358;2024-02-28T05:42:16;10.95;;;8.50;;
85040;SDS011;75367;52.010;4.358;2024-02-28T05:44:47;10.52;;;8.13;;
85040;SDS011;75367;52.010;4.358;2024-02-28T05:47:15;11.02;;;7.90;;
85040;SDS011;75367;52.010;4.358;2024-02-28T05:49:40;10.07;;;7.95;;
85040;SDS011;75367;52.010;4.358;2024-02-28T05:52:06;12.45;;;8.38;;
85040;SDS011;75367;52.010;4.358;2024-02-28T05:54:31;12.10;;;7.47;;
85040;SDS011;75367;52.010;4.358;2024-02-28T05:56:59;12.48;;;9.05;;
85040;SDS011;75367;52.010;4.358;2024-02-28T05:59:24;12.15;;;8.40;;
85040;SDS011;75367;52.010;4.358;2024-02-28T06:01:50;11.60;;;8.13;;
85040;SDS011;75367;52.010;4.358;2024-02-28T06:04:15;9.75;;;8.27;;
85040;SDS011;75367;52.010;4.358;2024-02-28T06:06:41;12.48;;;7.97;;
85040;SDS011;75367;52.010;4.358;2024-02-28T06:09:07;13.38;;;8.60;;
85040;SDS011;75367;52.010;4.358;2024-02-28T06:11:32;13.98;;;8.45;;
85040;SDS011;75367;52.010;4.358;2024-02-28T06:13:58;17.13;;;9.63;;
85040;SDS011;75367;52.010;4.358;2024-02-28T06:16:24;12.50;;;8.48;;
85040;SDS011;75367;52.010;4.358;2024-02-28T06:18:49;11.52;;;8.52;;
85040;SDS011;75367;52.010;4.358;2024-02-28T06:21:14;12.52;;;8.07;;
85040;SDS011;75367;52.010;4.358;2024-02-28T06:23:40;12.80;;;9.65;;
85040;SDS011;75367;52.010;4.358;2024-02-28T06:26:05;12.32;;;9.02;;
85040;SDS011;75367;52.010;4.358;2024-02-28T06:28:31;12.75;;;9.13;;
85040;SDS011;75367;52.010;4.358;2024-02-28T06:30:57;13.48;;;8.48;;
85040;SDS011;75367;52.010;4.358;2024-02-28T06:33:22;11.95;;;9.23;;
85040;SDS011;75367;52.010;4.358;2024-02-28T06:35:48;16.15;;;9.93;;
85040;SDS011;75367;52.010;4.358;2024-02-28T06:38:13;12.80;;;8.52;;
85040;SDS011;75367;52.010;4.358;2024-02-28T06:40:39;13.45;;;8.50;;
85040;SDS011;75367;52.010;4.358;2024-02-28T06:43:04;12.48;;;8.85;;
85040;SDS011;75367;52.010;4.358;2024-02-28T06:45:30;14.02;;;9.23;;
85040;SDS011;75367;52.010;4.358;2024-02-28T06:47:55;15.52;;;8.32;;
85040;SDS011;75367;52.010;4.358;2024-02-28T06:50:21;11.73;;;8.07;;
85040;SDS011;75367;52.010;4.358;2024-02-28T06:52:46;13.43;;;8.35;;
85040;SDS011;75367;52.010;4.358;2024-02-28T06:55:12;11.57;;;8.07;;
85040;SDS011;75367;52.010;4.358;2024-02-28T06:57:40;13.52;;;9.15;;
85040;SDS011;75367;52.010;4.358;2024-02-28T07:00:06;15.60;;;9.20;;
85040;SDS011;75367;52.010;4.358;2024-02-28T07:02:44;13.18;;;8.85;;
85040;SDS011;75367;52.010;4.358;2024-02-28T07:05:09;11.43;;;8.20;;
85040;SDS011;75367;52.010;4.358;2024-02-28T07:07:35;13.60;;;8.35;;
85040;SDS011;75367;52.010;4.358;2024-02-28T07:10:02;14.63;;;9.20;;
85040;SDS011;75367;52.010;4.358;2024-02-28T07:12:29;16.98;;;8.85;;
85040;SDS011;75367;52.010;4.358;2024-02-28T07:14:54;11.32;;;9.20;;
85040;SDS011;75367;52.010;4.358;2024-02-28T07:17:20;15.23;;;8.60;;
85040;SDS011;75367;52.010;4.358;2024-02-28T07:19:46;12.73;;;8.85;;
85040;SDS011;75367;52.010;4.358;2024-02-28T07:22:11;13.95;;;9.15;;
85040;SDS011;75367;52.010;4.358;2024-02-28T07:24:36;13.63;;;9.45;;
85040;SDS011;75367;52.010;4.358;2024-02-28T07:27:02;13.95;;;9.35;;
85040;SDS011;75367;52.010;4.358;2024-02-28T07:29:27;14.70;;;9.38;;
85040;SDS011;75367;52.010;4.358;2024-02-28T07:31:53;13.68;;;10.43;;
85040;SDS011;75367;52.010;4.358;2024-02-28T07:34:19;13.40;;;9.45;;
85040;SDS011;75367;52.010;4.358;2024-02-28T07:36:44;13.18;;;10.15;;
85040;SDS011;75367;52.010;4.358;2024-02-28T07:39:10;14.20;;;9.95;;
85040;SDS011;75367;52.010;4.358;2024-02-28T07:41:41;14.90;;;9.95;;
85040;SDS011;75367;52.010;4.358;2024-02-28T07:44:06;16.33;;;10.50;;
85040;SDS011;75367;52.010;4.358;2024-02-28T07:46:32;15.50;;;10.43;;
85040;SDS011;75367;52.010;4.358;2024-02-28T07:48:58;13.98;;;11.27;;
85040;SDS011;75367;52.010;4.358;2024-02-28T07:51:23;16.65;;;10.90;;
85040;SDS011;75367;52.010;4.358;2024-02-28T07:53:49;12.52;;;10.13;;
85040;SDS011;75367;52.010;4.358;2024-02-28T07:56:18;13.45;;;10.43;;
85040;SDS011;75367;52.010;4.358;2024-02-28T07:58:44;17.83;;;10.82;;
85040;SDS011;75367;52.010;4.358;2024-02-28T08:01:10;24.23;;;13.30;;
85040;SDS011;75367;52.010;4.358;2024-02-28T08:03:35;12.52;;;9.70;;
85040;SDS011;75367;52.010;4.358;2024-02-28T08:06:01;14.40;;;10.13;;
85040;SDS011;75367;52.010;4.358;2024-02-28T08:08:26;28.05;;;19.45;;
85040;SDS011;75367;52.010;4.358;2024-02-28T08:10:52;16.45;;;11.25;;
85040;SDS011;75367;52.010;4.358;2024-02-28T08:13:18;14.95;;;11.05;;
85040;SDS011;75367;52.010;4.358;2024-02-28T08:15:43;15.70;;;10.27;;
85040;SDS011;75367;52.010;4.358;2024-02-28T08:18:09;16.73;;;11.65;;
85040;SDS011;75367;52.010;4.358;2024-02-28T08:20:36;20.40;;;10.90;;
85040;SDS011;75367;52.010;4.358;2024-02-28T08:23:02;18.42;;;10.57;;
85040;SDS011;75367;52.010;4.358;2024-02-28T08:25:28;17.10;;;11.18;;
85040;SDS011;75367;52.010;4.358;2024-02-28T08:27:54;15.52;;;10.57;;
85040;SDS011;75367;52.010;4.358;2024-02-28T08:30:19;16.67;;;11.43;;
85040;SDS011;75367;52.010;4.358;2024-02-28T08:32:44;14.35;;;10.55;;
85040;SDS011;75367;52.010;4.358;2024-02-28T08:35:10;14.15;;;10.73;;
85040;SDS011;75367;52.010;4.358;2024-02-28T08:37:38;14.65;;;11.00;;
85040;SDS011;75367;52.010;4.358;2024-02-28T08:40:03;14.55;;;10.48;;
85040;SDS011;75367;52.010;4.358;2024-02-28T08:42:30;19.63;;;10.45;;
85040;SDS011;75367;52.010;4.358;2024-02-28T08:44:55;13.55;;;11.02;;
85040;SDS011;75367;52.010;4.358;2024-02-28T08:47:24;15.45;;;11.10;;
85040;SDS011;75367;52.010;4.358;2024-02-28T08:49:50;14.82;;;11.20;;
85040;SDS011;75367;52.010;4.358;2024-02-28T08:52:16;15.85;;;10.80;;
85040;SDS011;75367;52.010;4.358;2024-02-28T08:54:41;16.30;;;11.90;;
85040;SDS011;75367;52.010;4.358;2024-02-28T08:57:06;14.63;;;10.05;;
85040;SDS011;75367;52.010;4.358;2024-02-28T08:59:32;15.02;;;11.18;;
85040;SDS011;75367;52.010;4.358;2024-02-28T09:01:58;15.13;;;11.30;;
85040;SDS011;75367;52.010;4.358;2024-02-28T09:04:23;15.75;;;10.82;;
85040;SDS011;75367;52.010;4.358;2024-02-28T09:06:48;16.60;;;10.43;;
85040;SDS011;75367;52.010;4.358;2024-02-28T09:09:14;16.98;;;11.85;;
85040;SDS011;75367;52.010;4.358;2024-02-28T09:11:39;13.20;;;11.25;;
85040;SDS011;75367;52.010;4.358;2024-02-28T09:14:04;13.98;;;10.25;;
85040;SDS011;75367;52.010;4.358;2024-02-28T09:16:30;15.13;;;9.98;;
85040;SDS011;75367;52.010;4.358;2024-02-28T09:18:55;15.88;;;12.13;;
85040;SDS011;75367;52.010;4.358;2024-02-28T09:21:21;16.25;;;10.25;;
85040;SDS011;75367;52.010;4.358;2024-02-28T09:23:46;16.08;;;10.65;;
85040;SDS011;75367;52.010;4.358;2024-02-28T09:26:11;15.50;;;11.57;;
85040;SDS011;75367;52.010;4.358;2024-02-28T09:28:37;12.82;;;9.30;;
85040;SDS011;75367;52.010;4.358;2024-02-28T09:31:02;14.60;;;10.98;;
85040;SDS011;75367;52.010;4.358;2024-02-28T09:33:28;17.52;;;11.13;;
85040;SDS011;75367;52.010;4.358;2024-02-28T09:35:54;16.98;;;10.90;;
85040;SDS011;75367;52.010;4.358;2024-02-28T09:38:19;17.70;;;12.05;;
85040;SDS011;75367;52.010;4.358;2024-02-28T09:40:46;16.42;;;11.73;;
85040;SDS011;75367;52.010;4.358;2024-02-28T09:43:19;16.30;;;11.70;;
85040;SDS011;75367;52.010;4.358;2024-02-28T09:45:54;16.83;;;12.73;;
85040;SDS011;75367;52.010;4.358;2024-02-28T09:48:23;15.55;;;11.23;;
85040;SDS011;75367;52.010;4.358;2024-02-28T09:50:48;17.77;;;13.30;;
85040;SDS011;75367;52.010;4.358;2024-02-28T09:53:14;18.35;;;12.30;;
85040;SDS011;75367;52.010;4.358;2024-02-28T09:55:39;18.42;;;13.07;;
85040;SDS011;75367;52.010;4.358;2024-02-28T09:58:05;20.55;;;14.07;;
85040;SDS011;75367;52.010;4.358;2024-02-28T10:00:30;21.52;;;13.00;;
85040;SDS011;75367;52.010;4.358;2024-02-28T10:02:56;19.52;;;12.55;;
85040;SDS011;75367;52.010;4.358;2024-02-28T10:05:23;18.88;;;12.43;;
85040;SDS011;75367;52.010;4.358;2024-02-28T10:07:51;20.02;;;12.65;;
85040;SDS011;75367;52.010;4.358;2024-02-28T10:10:18;19.13;;;11.88;;
85040;SDS011;75367;52.010;4.358;2024-02-28T10:12:44;20.23;;;14.63;;
85040;SDS011;75367;52.010;4.358;2024-02-28T10:15:10;18.83;;;11.63;;
85040;SDS011;75367;52.010;4.358;2024-02-28T10:17:35;18.48;;;11.23;;
85040;SDS011;75367;52.010;4.358;2024-02-28T10:20:02;16.83;;;11.38;;
85040;SDS011;75367;52.010;4.358;2024-02-28T10:22:35;15.93;;;11.98;;
85040;SDS011;75367;52.010;4.358;2024-02-28T10:25:03;18.10;;;11.50;;
85040;SDS011;75367;52.010;4.358;2024-02-28T10:27:33;15.10;;;10.57;;
85040;SDS011;75367;52.010;4.358;2024-02-28T10:29:59;16.27;;;11.02;;
85040;SDS011;75367;52.010;4.358;2024-02-28T10:32:25;14.18;;;10.70;;
85040;SDS011;75367;52.010;4.358;2024-02-28T10:34:50;16.95;;;11.55;;
85040;SDS011;75367;52.010;4.358;2024-02-28T10:37:16;18.02;;;12.30;;
85040;SDS011;75367;52.010;4.358;2024-02-28T10:39:42;17.33;;;11.95;;
85040;SDS011;75367;52.010;4.358;2024-02-28T10:42:08;12.90;;;9.32;;
85040;SDS011;75367;52.010;4.358;2024-02-28T10:44:34;13.20;;;9.40;;
85040;SDS011;75367;52.010;4.358;2024-02-28T10:47:00;14.88;;;9.57;;
85040;SDS011;75367;52.010;4.358;2024-02-28T10:49:27;15.52;;;9.88;;
85040;SDS011;75367;52.010;4.358;2024-02-28T10:51:52;17.17;;;9.43;;
85040;SDS011;75367;52.010;4.358;2024-02-28T10:54:21;13.18;;;9.52;;
85040;SDS011;75367;52.010;4.358;2024-02-28T10:56:49;14.93;;;10.18;;
85040;SDS011;75367;52.010;4.358;2024-02-28T10:59:16;15.15;;;10.05;;
85040;SDS011;75367;52.010;4.358;2024-02-28T11:01:42;13.95;;;9.25;;
85040;SDS011;75367;52.010;4.358;2024-02-28T11:04:09;16.08;;;11.20;;
85040;SDS011;75367;52.010;4.358;2024-02-28T11:06:35;19.73;;;12.88;;
85040;SDS011;75367;52.010;4.358;2024-02-28T11:09:01;19.48;;;12.65;;
85040;SDS011;75367;52.010;4.358;2024-02-28T11:11:31;15.32;;;10.15;;
85040;SDS011;75367;52.010;4.358;2024-02-28T11:13:59;15.32;;;11.45;;
85040;SDS011;75367;52.010;4.358;2024-02-28T11:16:27;14.65;;;11.15;;
85040;SDS011;75367;52.010;4.358;2024-02-28T11:18:56;14.73;;;10.63;;
85040;SDS011;75367;52.010;4.358;2024-02-28T11:21:22;15.55;;;10.48;;
85040;SDS011;75367;52.010;4.358;2024-02-28T11:23:49;12.70;;;9.20;;
85040;SDS011;75367;52.010;4.358;2024-02-28T11:26:15;13.50;;;10.88;;
85040;SDS011;75367;52.010;4.358;2024-02-28T11:28:40;19.50;;;11.45;;
85040;SDS011;75367;52.010;4.358;2024-02-28T11:31:06;14.93;;;10.63;;
85040;SDS011;75367;52.010;4.358;2024-02-28T11:33:31;15.85;;;10.35;;
85040;SDS011;75367;52.010;4.358;2024-02-28T11:35:58;16.20;;;10.77;;
85040;SDS011;75367;52.010;4.358;2024-02-28T11:38:27;13.77;;;8.60;;
85040;SDS011;75367;52.010;4.358;2024-02-28T11:40:53;13.27;;;7.63;;
85040;SDS011;75367;52.010;4.358;2024-02-28T11:43:18;15.38;;;10.20;;
85040;SDS011;75367;52.010;4.358;2024-02-28T11:45:44;13.82;;;9.90;;
85040;SDS011;75367;52.010;4.358;2024-02-28T11:48:12;16.25;;;9.07;;
85040;SDS011;75367;52.010;4.358;2024-02-28T11:50:39;5.30;;;2.28;;
85040;SDS011;75367;52.010;4.358;2024-02-28T11:53:04;19.17;;;11.95;;
85040;SDS011;75367;52.010;4.358;2024-02-28T11:55:30;17.55;;;10.98;;
85040;SDS011;75367;52.010;4.358;2024-02-28T11:57:55;20.13;;;13.13;;
85040;SDS011;75367;52.010;4.358;2024-02-28T12:00:20;22.65;;;13.75;;
85040;SDS011;75367;52.010;4.358;2024-02-28T12:02:46;12.75;;;7.28;;
85040;SDS011;75367;52.010;4.358;2024-02-28T12:05:12;13.90;;;8.25;;
85040;SDS011;75367;52.010;4.358;2024-02-28T12:07:38;23.73;;;14.75;;
85040;SDS011;75367;52.010;4.358;2024-02-28T12:10:03;24.02;;;14.02;;
85040;SDS011;75367;52.010;4.358;2024-02-28T12:12:29;21.60;;;12.23;;
85040;SDS011;75367;52.010;4.358;2024-02-28T12:14:58;8.27;;;4.00;;
85040;SDS011;75367;52.010;4.358;2024-02-28T12:17:24;21.52;;;13.07;;
85040;SDS011;75367;52.010;4.358;2024-02-28T12:19:50;7.38;;;3.75;;
85040;SDS011;75367;52.010;4.358;2024-02-28T12:22:16;16.55;;;8.40;;
85040;SDS011;75367;52.010;4.358;2024-02-28T12:24:41;12.52;;;6.90;;
85040;SDS011;75367;52.010;4.358;2024-02-28T12:27:07;13.10;;;8.05;;
85040;SDS011;75367;52.010;4.358;2024-02-28T12:29:32;3.72;;;2.10;;
85040;SDS011;75367;52.010;4.358;2024-02-28T12:31:58;12.20;;;5.10;;
85040;SDS011;75367;52.010;4.358;2024-02-28T12:34:23;17.88;;;8.85;;
85040;SDS011;75367;52.010;4.358;2024-02-28T12:36:48;16.33;;;11.73;;
85040;SDS011;75367;52.010;4.358;2024-02-28T12:39:14;16.52;;;10.82;;
85040;SDS011;75367;52.010;4.358;2024-02-28T12:41:39;20.00;;;12.30;;
85040;SDS011;75367;52.010;4.358;2024-02-28T12:44:06;16.50;;;10.77;;
85040;SDS011;75367;52.010;4.358;2024-02-28T12:46:32;17.02;;;11.07;;
85040;SDS011;75367;52.010;4.358;2024-02-28T12:48:58;17.15;;;10.27;;
85040;SDS011;75367;52.010;4.358;2024-02-28T12:51:40;11.75;;;7.40;;
85040;SDS011;75367;52.010;4.358;2024-02-28T12:54:10;15.95;;;11.32;;
85040;SDS011;75367;52.010;4.358;2024-02-28T12:56:37;13.25;;;8.63;;
85040;SDS011;75367;52.010;4.358;2024-02-28T12:59:04;21.00;;;12.20;;
85040;SDS011;75367;52.010;4.358;2024-02-28T13:01:30;17.02;;;11.60;;
85040;SDS011;75367;52.010;4.358;2024-02-28T13:03:56;15.68;;;10.70;;
85040;SDS011;75367;52.010;4.358;2024-02-28T13:06:22;17.73;;;12.45;;
85040;SDS011;75367;52.010;4.358;2024-02-28T13:08:47;19.60;;;12.00;;
85040;SDS011;75367;52.010;4.358;2024-02-28T13:11:19;20.73;;;13.57;;
85040;SDS011;75367;52.010;4.358;2024-02-28T13:13:46;20.25;;;10.25;;
85040;SDS011;75367;52.010;4.358;2024-02-28T13:16:12;21.63;;;14.20;;
85040;SDS011;75367;52.010;4.358;2024-02-28T13:18:37;20.65;;;14.23;;
85040;SDS011;75367;52.010;4.358;2024-02-28T13:21:03;26.65;;;14.52;;
85040;SDS011;75367;52.010;4.358;2024-02-28T13:23:29;20.58;;;13.88;;
85040;SDS011;75367;52.010;4.358;2024-02-28T13:25:56;19.48;;;12.80;;
85040;SDS011;75367;52.010;4.358;2024-02-28T13:28:21;16.67;;;13.18;;
85040;SDS011;75367;52.010;4.358;2024-02-28T13:30:54;19.85;;;13.13;;
85040;SDS011;75367;52.010;4.358;2024-02-28T13:33:22;20.55;;;12.60;;
85040;SDS011;75367;52.010;4.358;2024-02-28T13:35:48;17.88;;;13.63;;
85040;SDS011;75367;52.010;4.358;2024-02-28T13:38:13;18.95;;;13.15;;
85040;SDS011;75367;52.010;4.358;2024-02-28T13:40:38;18.33;;;13.43;;
85040;SDS011;75367;52.010;4.358;2024-02-28T13:43:05;18.95;;;12.98;;
85040;SDS011;75367;52.010;4.358;2024-02-28T13:45:30;17.75;;;12.57;;
85040;SDS011;75367;52.010;4.358;2024-02-28T13:47:56;16.92;;;11.05;;
85040;SDS011;75367;52.010;4.358;2024-02-28T13:50:21;19.58;;;11.77;;
85040;SDS011;75367;52.010;4.358;2024-02-28T13:52:54;17.08;;;11.90;;
85040;SDS011;75367;52.010;4.358;2024-02-28T13:55:19;17.50;;;11.07;;
85040;SDS011;75367;52.010;4.358;2024-02-28T13:57:44;17.38;;;12.75;;
85040;SDS011;75367;52.010;4.358;2024-02-28T14:00:10;19.58;;;12.40;;
85040;SDS011;75367;52.010;4.358;2024-02-28T14:02:38;18.45;;;13.38;;
85040;SDS011;75367;52.010;4.358;2024-02-28T14:05:04;20.30;;;14.43;;
85040;SDS011;75367;52.010;4.358;2024-02-28T14:07:29;19.90;;;14.40;;
85040;SDS011;75367;52.010;4.358;2024-02-28T14:09:55;24.52;;;17.73;;
85040;SDS011;75367;52.010;4.358;2024-02-28T14:12:23;18.60;;;13.68;;
85040;SDS011;75367;52.010;4.358;2024-02-28T14:14:49;23.55;;;15.82;;
85040;SDS011;75367;52.010;4.358;2024-02-28T14:17:14;21.08;;;14.10;;
85040;SDS011;75367;52.010;4.358;2024-02-28T14:19:39;21.33;;;10.93;;
85040;SDS011;75367;52.010;4.358;2024-02-28T14:22:05;19.05;;;12.63;;
85040;SDS011;75367;52.010;4.358;2024-02-28T14:24:31;18.60;;;12.27;;
85040;SDS011;75367;52.010;4.358;2024-02-28T14:26:56;18.30;;;11.88;;